KBMG/BMG METAR and TAF weather

Enter ICAO airport designator
Station Type Date Time Source
KBMG METAR 2024/05/28 22:53 UTC NOAA

KBMG 282253Z VRB06KT 10SM CLR 24/12 A2998 RMK AO2 SLP146 T02440122


Station Type Date Time Source
KBMG Decoded METAR 2024/05/28 22:53 UTC NOAA

MONROE COUNTY AIRPORT, IN, United States (KBMG) 39-09N 086-37W 257M
May 28, 2024 - 06:53 PM EDT / 2024.05.28 2253 UTC
Wind: Variable at 7 MPH (6 KT):0
Visibility: 10 mile(s):0
Sky conditions: clear
Temperature: 75.9 F (24.4 C)
Dew Point: 54.0 F (12.2 C)
Relative Humidity: 46%
Pressure (altimeter): 29.98 in. Hg (1015 hPa)
ob: KBMG 282253Z VRB06KT 10SM CLR 24/12 A2998 RMK AO2 SLP146 T02440122
cycle: 23

Station Type Date Time Source
KBMG TAF 2024/05/28 18:22 UTC NOAA